sensor_id;sensor_type;location;lat;lon;timestamp;temperature;humidity
11320;DHT22;5715;48.234;14.320;2023-02-18T00:01:16;12.50;99.90
11320;DHT22;5715;48.234;14.320;2023-02-18T00:04:05;12.50;99.90
11320;DHT22;5715;48.234;14.320;2023-02-18T00:06:52;12.60;99.90
11320;DHT22;5715;48.234;14.320;2023-02-18T00:09:40;12.50;99.90
11320;DHT22;5715;48.234;14.320;2023-02-18T00:12:29;12.60;99.90
11320;DHT22;5715;48.234;14.320;2023-02-18T00:15:17;12.60;99.90
11320;DHT22;5715;48.234;14.320;2023-02-18T00:18:05;12.50;99.90
11320;DHT22;5715;48.234;14.320;2023-02-18T00:20:53;12.50;99.90
11320;DHT22;5715;48.234;14.320;2023-02-18T00:23:41;12.60;99.90
11320;DHT22;5715;48.234;14.320;2023-02-18T00:26:30;12.60;99.90
11320;DHT22;5715;48.234;14.320;2023-02-18T00:29:19;12.60;99.90
11320;DHT22;5715;48.234;14.320;2023-02-18T00:32:07;12.60;99.90
11320;DHT22;5715;48.234;14.320;2023-02-18T00:34:55;12.60;99.90
11320;DHT22;5715;48.234;14.320;2023-02-18T00:37:43;12.60;99.90
11320;DHT22;5715;48.234;14.320;2023-02-18T00:40:30;12.60;99.90
11320;DHT22;5715;48.234;14.320;2023-02-18T00:43:18;12.50;99.90
11320;DHT22;5715;48.234;14.320;2023-02-18T00:46:05;12.50;99.90
11320;DHT22;5715;48.234;14.320;2023-02-18T00:48:54;12.50;99.90
11320;DHT22;5715;48.234;14.320;2023-02-18T00:51:42;12.60;99.90
11320;DHT22;5715;48.234;14.320;2023-02-18T00:54:30;12.50;99.90
11320;DHT22;5715;48.234;14.320;2023-02-18T00:57:18;12.50;99.90
11320;DHT22;5715;48.234;14.320;2023-02-18T01:00:07;12.50;99.90
11320;DHT22;5715;48.234;14.320;2023-02-18T01:02:55;12.40;99.90
11320;DHT22;5715;48.234;14.320;2023-02-18T01:05:43;12.40;99.90
11320;DHT22;5715;48.234;14.320;2023-02-18T01:08:32;12.50;99.90
11320;DHT22;5715;48.234;14.320;2023-02-18T01:11:21;12.50;99.90
11320;DHT22;5715;48.234;14.320;2023-02-18T01:14:09;12.40;99.90
11320;DHT22;5715;48.234;14.320;2023-02-18T01:16:56;12.40;99.90
11320;DHT22;5715;48.234;14.320;2023-02-18T01:19:44;12.50;99.90
11320;DHT22;5715;48.234;14.320;2023-02-18T01:22:32;12.50;99.90
11320;DHT22;5715;48.234;14.320;2023-02-18T01:25:19;12.40;99.90
11320;DHT22;5715;48.234;14.320;2023-02-18T01:28:09;12.40;99.90
11320;DHT22;5715;48.234;14.320;2023-02-18T01:31:04;12.30;99.90
11320;DHT22;5715;48.234;14.320;2023-02-18T01:33:58;12.30;99.90
11320;DHT22;5715;48.234;14.320;2023-02-18T01:36:45;12.30;99.90
11320;DHT22;5715;48.234;14.320;2023-02-18T01:39:33;12.30;99.90
11320;DHT22;5715;48.234;14.320;2023-02-18T01:42:25;12.40;99.90
11320;DHT22;5715;48.234;14.320;2023-02-18T01:48:42;12.40;99.90
11320;DHT22;5715;48.234;14.320;2023-02-18T01:51:42;12.40;99.90
11320;DHT22;5715;48.234;14.320;2023-02-18T01:54:36;12.40;99.90
11320;DHT22;5715;48.234;14.320;2023-02-18T01:57:34;12.30;99.90
11320;DHT22;5715;48.234;14.320;2023-02-18T02:00:23;12.30;99.90
11320;DHT22;5715;48.234;14.320;2023-02-18T02:03:11;12.30;99.90
11320;DHT22;5715;48.234;14.320;2023-02-18T02:05:59;12.30;99.90
11320;DHT22;5715;48.234;14.320;2023-02-18T02:08:51;12.30;99.90
11320;DHT22;5715;48.234;14.320;2023-02-18T02:28:06;12.20;99.90
11320;DHT22;5715;48.234;14.320;2023-02-18T02:34:49;12.10;99.90
11320;DHT22;5715;48.234;14.320;2023-02-18T02:37:55;12.10;99.90
11320;DHT22;5715;48.234;14.320;2023-02-18T02:44:06;12.10;99.90
11320;DHT22;5715;48.234;14.320;2023-02-18T02:47:36;12.10;99.90
11320;DHT22;5715;48.234;14.320;2023-02-18T02:53:41;12.00;99.90
11320;DHT22;5715;48.234;14.320;2023-02-18T02:56:30;12.00;99.90
11320;DHT22;5715;48.234;14.320;2023-02-18T02:59:24;12.00;99.90
11320;DHT22;5715;48.234;14.320;2023-02-18T03:22:19;12.10;99.90
11320;DHT22;5715;48.234;14.320;2023-02-18T03:25:12;12.10;99.90
11320;DHT22;5715;48.234;14.320;2023-02-18T03:28:06;12.10;99.90
11320;DHT22;5715;48.234;14.320;2023-02-18T03:31:33;12.10;99.90
11320;DHT22;5715;48.234;14.320;2023-02-18T03:34:30;12.10;99.90
11320;DHT22;5715;48.234;14.320;2023-02-18T03:37:22;12.10;99.90
11320;DHT22;5715;48.234;14.320;2023-02-18T03:40:10;12.10;99.90
11320;DHT22;5715;48.234;14.320;2023-02-18T03:42:58;12.10;99.90
11320;DHT22;5715;48.234;14.320;2023-02-18T03:45:46;12.10;99.90
11320;DHT22;5715;48.234;14.320;2023-02-18T03:48:34;12.00;99.90
11320;DHT22;5715;48.234;14.320;2023-02-18T03:51:22;12.00;99.90
11320;DHT22;5715;48.234;14.320;2023-02-18T03:54:10;11.90;99.90
11320;DHT22;5715;48.234;14.320;2023-02-18T03:57:00;11.90;99.90
11320;DHT22;5715;48.234;14.320;2023-02-18T03:59:47;11.80;99.90
11320;DHT22;5715;48.234;14.320;2023-02-18T04:02:35;11.80;99.90
11320;DHT22;5715;48.234;14.320;2023-02-18T04:05:24;11.80;99.90
11320;DHT22;5715;48.234;14.320;2023-02-18T04:08:11;11.80;99.90
11320;DHT22;5715;48.234;14.320;2023-02-18T04:10:59;11.90;99.90
11320;DHT22;5715;48.234;14.320;2023-02-18T04:13:48;11.90;99.90
11320;DHT22;5715;48.234;14.320;2023-02-18T04:16:35;12.00;99.90
11320;DHT22;5715;48.234;14.320;2023-02-18T04:19:23;12.10;99.90
11320;DHT22;5715;48.234;14.320;2023-02-18T04:22:10;12.10;99.90
11320;DHT22;5715;48.234;14.320;2023-02-18T04:24:58;12.00;99.90
11320;DHT22;5715;48.234;14.320;2023-02-18T04:27:46;11.90;99.90
11320;DHT22;5715;48.234;14.320;2023-02-18T04:30:34;11.90;99.90
11320;DHT22;5715;48.234;14.320;2023-02-18T04:33:22;11.90;99.90
11320;DHT22;5715;48.234;14.320;2023-02-18T04:36:09;11.80;99.90
11320;DHT22;5715;48.234;14.320;2023-02-18T04:38:57;11.80;99.90
11320;DHT22;5715;48.234;14.320;2023-02-18T04:41:46;11.80;99.90
11320;DHT22;5715;48.234;14.320;2023-02-18T04:44:35;11.80;99.90
11320;DHT22;5715;48.234;14.320;2023-02-18T04:47:23;11.80;99.90
11320;DHT22;5715;48.234;14.320;2023-02-18T04:50:11;11.80;99.90
11320;DHT22;5715;48.234;14.320;2023-02-18T04:52:59;11.80;99.90
11320;DHT22;5715;48.234;14.320;2023-02-18T04:55:50;11.70;99.90
11320;DHT22;5715;48.234;14.320;2023-02-18T04:58:38;11.70;99.90
11320;DHT22;5715;48.234;14.320;2023-02-18T05:01:26;11.60;99.90
11320;DHT22;5715;48.234;14.320;2023-02-18T05:04:14;11.60;99.90
11320;DHT22;5715;48.234;14.320;2023-02-18T05:07:03;11.60;99.90
11320;DHT22;5715;48.234;14.320;2023-02-18T05:09:51;11.50;99.90
11320;DHT22;5715;48.234;14.320;2023-02-18T05:12:38;11.50;99.90
11320;DHT22;5715;48.234;14.320;2023-02-18T05:15:26;11.50;99.90
11320;DHT22;5715;48.234;14.320;2023-02-18T05:18:14;11.40;99.90
11320;DHT22;5715;48.234;14.320;2023-02-18T05:21:02;11.30;99.90
11320;DHT22;5715;48.234;14.320;2023-02-18T05:23:50;11.30;99.90
11320;DHT22;5715;48.234;14.320;2023-02-18T05:26:38;11.30;99.90
11320;DHT22;5715;48.234;14.320;2023-02-18T05:29:25;11.30;99.90
11320;DHT22;5715;48.234;14.320;2023-02-18T05:32:13;11.20;99.90
11320;DHT22;5715;48.234;14.320;2023-02-18T05:35:00;11.20;99.90
11320;DHT22;5715;48.234;14.320;2023-02-18T05:37:48;11.20;99.90
11320;DHT22;5715;48.234;14.320;2023-02-18T05:40:39;11.10;99.90
11320;DHT22;5715;48.234;14.320;2023-02-18T05:43:27;11.10;99.90
11320;DHT22;5715;48.234;14.320;2023-02-18T05:46:15;11.10;99.90
11320;DHT22;5715;48.234;14.320;2023-02-18T05:49:02;11.00;99.90
11320;DHT22;5715;48.234;14.320;2023-02-18T05:51:50;11.00;99.90
11320;DHT22;5715;48.234;14.320;2023-02-18T05:54:38;11.00;99.90
11320;DHT22;5715;48.234;14.320;2023-02-18T05:57:26;11.10;99.90
11320;DHT22;5715;48.234;14.320;2023-02-18T06:00:14;11.10;99.90
11320;DHT22;5715;48.234;14.320;2023-02-18T06:03:02;11.10;99.90
11320;DHT22;5715;48.234;14.320;2023-02-18T06:05:50;11.20;99.90
11320;DHT22;5715;48.234;14.320;2023-02-18T06:08:38;11.20;99.90
11320;DHT22;5715;48.234;14.320;2023-02-18T06:11:26;11.20;99.90
11320;DHT22;5715;48.234;14.320;2023-02-18T06:14:14;11.20;99.90
11320;DHT22;5715;48.234;14.320;2023-02-18T06:17:02;11.30;99.90
11320;DHT22;5715;48.234;14.320;2023-02-18T06:19:50;11.20;99.90
11320;DHT22;5715;48.234;14.320;2023-02-18T06:22:37;11.20;99.90
11320;DHT22;5715;48.234;14.320;2023-02-18T06:25:25;11.20;99.90
11320;DHT22;5715;48.234;14.320;2023-02-18T06:28:12;11.20;99.90
11320;DHT22;5715;48.234;14.320;2023-02-18T06:31:00;11.20;99.90
11320;DHT22;5715;48.234;14.320;2023-02-18T06:33:48;11.10;99.90
11320;DHT22;5715;48.234;14.320;2023-02-18T06:36:35;11.10;99.90
11320;DHT22;5715;48.234;14.320;2023-02-18T06:39:23;11.10;99.90
11320;DHT22;5715;48.234;14.320;2023-02-18T06:42:11;11.10;99.90
11320;DHT22;5715;48.234;14.320;2023-02-18T06:44:58;11.00;99.90
11320;DHT22;5715;48.234;14.320;2023-02-18T06:47:46;10.90;99.90
11320;DHT22;5715;48.234;14.320;2023-02-18T06:50:34;10.90;99.90
11320;DHT22;5715;48.234;14.320;2023-02-18T06:53:22;10.90;99.90
11320;DHT22;5715;48.234;14.320;2023-02-18T06:56:09;10.80;99.90
11320;DHT22;5715;48.234;14.320;2023-02-18T06:58:58;10.70;99.90
11320;DHT22;5715;48.234;14.320;2023-02-18T07:01:45;10.70;99.90
11320;DHT22;5715;48.234;14.320;2023-02-18T07:04:33;10.70;99.90
11320;DHT22;5715;48.234;14.320;2023-02-18T07:07:21;10.60;99.90
11320;DHT22;5715;48.234;14.320;2023-02-18T07:10:09;10.60;99.90
11320;DHT22;5715;48.234;14.320;2023-02-18T07:12:57;10.60;99.90
11320;DHT22;5715;48.234;14.320;2023-02-18T07:15:45;10.60;99.90
11320;DHT22;5715;48.234;14.320;2023-02-18T07:18:32;10.60;99.90
11320;DHT22;5715;48.234;14.320;2023-02-18T07:21:20;10.60;99.90
11320;DHT22;5715;48.234;14.320;2023-02-18T07:24:07;10.60;99.90
11320;DHT22;5715;48.234;14.320;2023-02-18T07:26:55;10.60;99.90
11320;DHT22;5715;48.234;14.320;2023-02-18T07:29:43;10.70;99.90
11320;DHT22;5715;48.234;14.320;2023-02-18T07:32:30;10.70;99.90
11320;DHT22;5715;48.234;14.320;2023-02-18T07:35:18;10.80;99.90
11320;DHT22;5715;48.234;14.320;2023-02-18T07:38:08;10.80;99.90
11320;DHT22;5715;48.234;14.320;2023-02-18T07:40:56;10.80;99.90
11320;DHT22;5715;48.234;14.320;2023-02-18T07:43:44;10.90;99.90
11320;DHT22;5715;48.234;14.320;2023-02-18T07:46:32;11.00;99.90
11320;DHT22;5715;48.234;14.320;2023-02-18T07:49:20;11.00;99.90
11320;DHT22;5715;48.234;14.320;2023-02-18T07:52:07;11.10;99.90
11320;DHT22;5715;48.234;14.320;2023-02-18T07:54:55;11.10;99.90
11320;DHT22;5715;48.234;14.320;2023-02-18T07:57:43;11.20;99.90
11320;DHT22;5715;48.234;14.320;2023-02-18T08:00:48;11.20;99.90
11320;DHT22;5715;48.234;14.320;2023-02-18T08:03:37;11.20;99.90
11320;DHT22;5715;48.234;14.320;2023-02-18T08:06:32;11.30;99.90
11320;DHT22;5715;48.234;14.320;2023-02-18T08:09:21;11.30;99.90
11320;DHT22;5715;48.234;14.320;2023-02-18T08:12:09;11.40;99.90
11320;DHT22;5715;48.234;14.320;2023-02-18T08:14:57;11.50;99.90
11320;DHT22;5715;48.234;14.320;2023-02-18T08:17:44;11.50;99.90
11320;DHT22;5715;48.234;14.320;2023-02-18T08:20:35;11.60;99.90
11320;DHT22;5715;48.234;14.320;2023-02-18T08:23:24;11.70;99.90
11320;DHT22;5715;48.234;14.320;2023-02-18T08:26:13;11.80;99.90
11320;DHT22;5715;48.234;14.320;2023-02-18T08:29:02;11.90;99.90
11320;DHT22;5715;48.234;14.320;2023-02-18T08:31:49;11.90;99.90
11320;DHT22;5715;48.234;14.320;2023-02-18T08:34:39;11.90;99.90
11320;DHT22;5715;48.234;14.320;2023-02-18T08:37:27;12.00;99.90
11320;DHT22;5715;48.234;14.320;2023-02-18T08:40:14;12.10;99.90
11320;DHT22;5715;48.234;14.320;2023-02-18T08:43:03;12.10;99.90
11320;DHT22;5715;48.234;14.320;2023-02-18T08:45:50;12.10;99.90
11320;DHT22;5715;48.234;14.320;2023-02-18T08:48:38;12.20;99.90
11320;DHT22;5715;48.234;14.320;2023-02-18T08:51:26;12.30;99.90
11320;DHT22;5715;48.234;14.320;2023-02-18T08:54:14;12.40;99.90
11320;DHT22;5715;48.234;14.320;2023-02-18T08:57:02;12.50;99.90
11320;DHT22;5715;48.234;14.320;2023-02-18T08:59:50;12.60;99.90
11320;DHT22;5715;48.234;14.320;2023-02-18T09:02:38;12.60;99.90
11320;DHT22;5715;48.234;14.320;2023-02-18T09:05:25;12.70;99.90
11320;DHT22;5715;48.234;14.320;2023-02-18T09:08:13;12.70;99.90
11320;DHT22;5715;48.234;14.320;2023-02-18T09:11:03;12.70;99.90
11320;DHT22;5715;48.234;14.320;2023-02-18T09:13:51;12.80;99.90
11320;DHT22;5715;48.234;14.320;2023-02-18T09:16:40;12.80;99.90
11320;DHT22;5715;48.234;14.320;2023-02-18T09:19:28;12.70;99.90
11320;DHT22;5715;48.234;14.320;2023-02-18T09:22:17;12.80;99.90
11320;DHT22;5715;48.234;14.320;2023-02-18T09:25:05;12.80;99.90
11320;DHT22;5715;48.234;14.320;2023-02-18T09:27:53;12.90;99.90
11320;DHT22;5715;48.234;14.320;2023-02-18T09:30:41;13.00;99.90
11320;DHT22;5715;48.234;14.320;2023-02-18T09:33:29;13.10;99.90
11320;DHT22;5715;48.234;14.320;2023-02-18T09:36:18;13.20;99.90
11320;DHT22;5715;48.234;14.320;2023-02-18T09:39:06;13.20;99.90
11320;DHT22;5715;48.234;14.320;2023-02-18T09:41:57;13.30;99.90
11320;DHT22;5715;48.234;14.320;2023-02-18T09:44:52;13.40;99.90
11320;DHT22;5715;48.234;14.320;2023-02-18T09:47:43;13.40;99.90
11320;DHT22;5715;48.234;14.320;2023-02-18T09:50:33;13.30;99.90
11320;DHT22;5715;48.234;14.320;2023-02-18T09:53:23;13.40;99.90
11320;DHT22;5715;48.234;14.320;2023-02-18T09:56:22;13.50;99.90
11320;DHT22;5715;48.234;14.320;2023-02-18T09:59:20;13.60;99.90
11320;DHT22;5715;48.234;14.320;2023-02-18T10:02:13;13.60;99.90
11320;DHT22;5715;48.234;14.320;2023-02-18T10:05:12;13.60;99.90
11320;DHT22;5715;48.234;14.320;2023-02-18T10:08:05;13.70;99.90
11320;DHT22;5715;48.234;14.320;2023-02-18T10:10:58;13.70;99.90
11320;DHT22;5715;48.234;14.320;2023-02-18T10:13:46;13.80;99.90
11320;DHT22;5715;48.234;14.320;2023-02-18T10:16:34;13.80;99.90
11320;DHT22;5715;48.234;14.320;2023-02-18T10:19:24;14.00;99.90
11320;DHT22;5715;48.234;14.320;2023-02-18T10:22:16;14.30;99.90
11320;DHT22;5715;48.234;14.320;2023-02-18T10:25:06;14.70;99.90
11320;DHT22;5715;48.234;14.320;2023-02-18T10:27:55;14.80;99.90
11320;DHT22;5715;48.234;14.320;2023-02-18T10:30:56;14.90;99.90
11320;DHT22;5715;48.234;14.320;2023-02-18T10:34:05;14.80;99.90
11320;DHT22;5715;48.234;14.320;2023-02-18T10:41:21;14.70;99.90
11320;DHT22;5715;48.234;14.320;2023-02-18T10:51:15;15.40;99.90
11320;DHT22;5715;48.234;14.320;2023-02-18T10:54:09;15.40;99.90
11320;DHT22;5715;48.234;14.320;2023-02-18T10:56:59;15.20;99.90
11320;DHT22;5715;48.234;14.320;2023-02-18T11:03:46;15.30;99.90
11320;DHT22;5715;48.234;14.320;2023-02-18T11:06:41;15.10;99.90
11320;DHT22;5715;48.234;14.320;2023-02-18T11:12:48;15.00;99.90
11320;DHT22;5715;48.234;14.320;2023-02-18T11:15:58;15.00;99.90
11320;DHT22;5715;48.234;14.320;2023-02-18T11:18:51;15.20;99.90
11320;DHT22;5715;48.234;14.320;2023-02-18T11:21:39;15.40;99.90
11320;DHT22;5715;48.234;14.320;2023-02-18T11:24:28;15.30;99.90
11320;DHT22;5715;48.234;14.320;2023-02-18T11:30:39;15.50;99.90
11320;DHT22;5715;48.234;14.320;2023-02-18T11:33:39;15.30;99.90
11320;DHT22;5715;48.234;14.320;2023-02-18T11:36:32;15.30;99.90
11320;DHT22;5715;48.234;14.320;2023-02-18T11:39:25;15.20;99.90
11320;DHT22;5715;48.234;14.320;2023-02-18T11:42:17;15.10;99.90
11320;DHT22;5715;48.234;14.320;2023-02-18T11:45:28;15.10;99.90
11320;DHT22;5715;48.234;14.320;2023-02-18T11:48:22;15.10;99.90
11320;DHT22;5715;48.234;14.320;2023-02-18T11:51:24;15.20;99.90
11320;DHT22;5715;48.234;14.320;2023-02-18T11:54:28;15.30;99.90
11320;DHT22;5715;48.234;14.320;2023-02-18T11:57:19;15.30;99.90
11320;DHT22;5715;48.234;14.320;2023-02-18T12:10:00;15.30;99.90
11320;DHT22;5715;48.234;14.320;2023-02-18T12:13:05;15.30;99.90
11320;DHT22;5715;48.234;14.320;2023-02-18T12:22:40;15.40;99.90
11320;DHT22;5715;48.234;14.320;2023-02-18T12:25:45;15.70;99.90
11320;DHT22;5715;48.234;14.320;2023-02-18T12:32:28;15.60;99.90
11320;DHT22;5715;48.234;14.320;2023-02-18T12:35:53;15.50;99.90
11320;DHT22;5715;48.234;14.320;2023-02-18T12:39:10;15.50;99.90
11320;DHT22;5715;48.234;14.320;2023-02-18T12:49:54;15.60;99.90
11320;DHT22;5715;48.234;14.320;2023-02-18T12:53:29;15.80;99.90
11320;DHT22;5715;48.234;14.320;2023-02-18T12:56:43;15.80;99.90
11320;DHT22;5715;48.234;14.320;2023-02-18T13:00:09;15.70;99.90
11320;DHT22;5715;48.234;14.320;2023-02-18T13:10:16;15.70;99.90
11320;DHT22;5715;48.234;14.320;2023-02-18T13:12:55;15.80;99.90
11320;DHT22;5715;48.234;14.320;2023-02-18T13:16:02;15.80;99.90
11320;DHT22;5715;48.234;14.320;2023-02-18T13:19:19;15.70;99.90
11320;DHT22;5715;48.234;14.320;2023-02-18T13:22:14;15.70;99.90
11320;DHT22;5715;48.234;14.320;2023-02-18T13:25:04;15.90;99.90
11320;DHT22;5715;48.234;14.320;2023-02-18T13:38:19;16.30;99.90
11320;DHT22;5715;48.234;14.320;2023-02-18T13:41:40;16.40;99.90
11320;DHT22;5715;48.234;14.320;2023-02-18T13:47:42;16.30;99.90
11320;DHT22;5715;48.234;14.320;2023-02-18T13:50:32;16.30;99.90
11320;DHT22;5715;48.234;14.320;2023-02-18T13:53:31;16.30;99.90
11320;DHT22;5715;48.234;14.320;2023-02-18T13:56:32;16.30;99.90
11320;DHT22;5715;48.234;14.320;2023-02-18T13:59:32;16.20;99.90
11320;DHT22;5715;48.234;14.320;2023-02-18T14:05:20;16.10;99.90
11320;DHT22;5715;48.234;14.320;2023-02-18T14:08:15;16.10;99.90
11320;DHT22;5715;48.234;14.320;2023-02-18T14:14:32;16.00;99.90
11320;DHT22;5715;48.234;14.320;2023-02-18T14:22:59;16.30;99.90
11320;DHT22;5715;48.234;14.320;2023-02-18T14:28:54;16.30;99.90
11320;DHT22;5715;48.234;14.320;2023-02-18T14:34:49;16.30;99.90
11320;DHT22;5715;48.234;14.320;2023-02-18T14:41:18;16.10;99.90
11320;DHT22;5715;48.234;14.320;2023-02-18T14:44:39;16.10;99.90
11320;DHT22;5715;48.234;14.320;2023-02-18T14:50:41;16.10;99.90
11320;DHT22;5715;48.234;14.320;2023-02-18T14:53:39;16.10;99.90
11320;DHT22;5715;48.234;14.320;2023-02-18T14:56:31;16.20;99.90
11320;DHT22;5715;48.234;14.320;2023-02-18T14:59:28;16.10;99.90
11320;DHT22;5715;48.234;14.320;2023-02-18T15:02:23;16.00;99.90
11320;DHT22;5715;48.234;14.320;2023-02-18T15:05:21;15.90;99.90
11320;DHT22;5715;48.234;14.320;2023-02-18T15:08:18;15.90;99.90
11320;DHT22;5715;48.234;14.320;2023-02-18T15:11:07;15.80;99.90
11320;DHT22;5715;48.234;14.320;2023-02-18T15:13:55;15.70;99.90
11320;DHT22;5715;48.234;14.320;2023-02-18T15:16:43;15.60;99.90
11320;DHT22;5715;48.234;14.320;2023-02-18T15:19:41;15.50;99.90
11320;DHT22;5715;48.234;14.320;2023-02-18T15:22:32;15.40;99.90
11320;DHT22;5715;48.234;14.320;2023-02-18T15:25:21;15.30;99.90
11320;DHT22;5715;48.234;14.320;2023-02-18T15:28:27;15.30;99.90
11320;DHT22;5715;48.234;14.320;2023-02-18T15:31:16;15.20;99.90
11320;DHT22;5715;48.234;14.320;2023-02-18T15:34:29;15.10;99.90
11320;DHT22;5715;48.234;14.320;2023-02-18T15:37:19;15.10;99.90
11320;DHT22;5715;48.234;14.320;2023-02-18T15:40:13;14.90;99.90
11320;DHT22;5715;48.234;14.320;2023-02-18T15:43:03;14.80;99.90
11320;DHT22;5715;48.234;14.320;2023-02-18T15:45:55;14.80;99.90
11320;DHT22;5715;48.234;14.320;2023-02-18T15:48:47;14.60;99.90
11320;DHT22;5715;48.234;14.320;2023-02-18T15:51:37;14.50;99.90
11320;DHT22;5715;48.234;14.320;2023-02-18T15:54:29;14.40;99.90
11320;DHT22;5715;48.234;14.320;2023-02-18T15:57:18;14.30;99.90
11320;DHT22;5715;48.234;14.320;2023-02-18T16:00:15;14.20;99.90
11320;DHT22;5715;48.234;14.320;2023-02-18T16:03:23;14.20;99.90
11320;DHT22;5715;48.234;14.320;2023-02-18T16:06:37;14.10;99.90
11320;DHT22;5715;48.234;14.320;2023-02-18T16:09:33;14.10;99.90
11320;DHT22;5715;48.234;14.320;2023-02-18T16:12:29;14.10;99.90
11320;DHT22;5715;48.234;14.320;2023-02-18T16:15:28;14.00;99.90
11320;DHT22;5715;48.234;14.320;2023-02-18T16:24:23;13.90;99.90
11320;DHT22;5715;48.234;14.320;2023-02-18T16:27:15;13.90;99.90
11320;DHT22;5715;48.234;14.320;2023-02-18T16:30:19;13.90;99.90
11320;DHT22;5715;48.234;14.320;2023-02-18T16:33:09;13.90;99.90
11320;DHT22;5715;48.234;14.320;2023-02-18T16:35:58;13.90;99.90
11320;DHT22;5715;48.234;14.320;2023-02-18T16:38:46;13.90;99.90
11320;DHT22;5715;48.234;14.320;2023-02-18T16:41:34;13.80;99.90
11320;DHT22;5715;48.234;14.320;2023-02-18T16:44:22;13.90;99.90
11320;DHT22;5715;48.234;14.320;2023-02-18T16:47:14;13.90;99.90
11320;DHT22;5715;48.234;14.320;2023-02-18T16:50:04;14.00;99.90
11320;DHT22;5715;48.234;14.320;2023-02-18T16:52:52;14.00;99.90
11320;DHT22;5715;48.234;14.320;2023-02-18T16:55:40;14.00;99.90
11320;DHT22;5715;48.234;14.320;2023-02-18T16:58:27;13.90;99.90
11320;DHT22;5715;48.234;14.320;2023-02-18T17:01:28;13.90;99.90
11320;DHT22;5715;48.234;14.320;2023-02-18T17:04:24;13.90;99.90
11320;DHT22;5715;48.234;14.320;2023-02-18T17:07:12;13.90;99.90
11320;DHT22;5715;48.234;14.320;2023-02-18T17:10:00;13.90;99.90
11320;DHT22;5715;48.234;14.320;2023-02-18T17:12:47;13.90;99.90
11320;DHT22;5715;48.234;14.320;2023-02-18T17:15:35;13.80;99.90
11320;DHT22;5715;48.234;14.320;2023-02-18T17:18:25;13.80;99.90
11320;DHT22;5715;48.234;14.320;2023-02-18T17:21:15;13.80;99.90
11320;DHT22;5715;48.234;14.320;2023-02-18T17:24:05;13.70;99.90
11320;DHT22;5715;48.234;14.320;2023-02-18T17:26:58;13.70;99.90
11320;DHT22;5715;48.234;14.320;2023-02-18T17:29:45;13.70;99.90
11320;DHT22;5715;48.234;14.320;2023-02-18T17:32:33;13.70;99.90
11320;DHT22;5715;48.234;14.320;2023-02-18T17:35:22;13.70;99.90
11320;DHT22;5715;48.234;14.320;2023-02-18T17:38:12;13.70;99.90
11320;DHT22;5715;48.234;14.320;2023-02-18T17:41:01;13.60;99.90
11320;DHT22;5715;48.234;14.320;2023-02-18T17:43:49;13.60;99.90
11320;DHT22;5715;48.234;14.320;2023-02-18T17:46:37;13.50;99.90
11320;DHT22;5715;48.234;14.320;2023-02-18T17:49:24;13.50;99.90
11320;DHT22;5715;48.234;14.320;2023-02-18T17:52:28;13.50;99.90
11320;DHT22;5715;48.234;14.320;2023-02-18T17:55:32;13.40;99.90
11320;DHT22;5715;48.234;14.320;2023-02-18T17:58:22;13.40;99.90
11320;DHT22;5715;48.234;14.320;2023-02-18T18:01:09;13.40;99.90
11320;DHT22;5715;48.234;14.320;2023-02-18T18:03:58;13.40;99.90
11320;DHT22;5715;48.234;14.320;2023-02-18T18:06:45;13.40;99.90
11320;DHT22;5715;48.234;14.320;2023-02-18T18:09:33;13.40;99.90
11320;DHT22;5715;48.234;14.320;2023-02-18T18:12:22;13.40;99.90
11320;DHT22;5715;48.234;14.320;2023-02-18T18:15:29;13.30;99.90
11320;DHT22;5715;48.234;14.320;2023-02-18T18:18:28;13.30;99.90
11320;DHT22;5715;48.234;14.320;2023-02-18T18:21:22;13.30;99.90
11320;DHT22;5715;48.234;14.320;2023-02-18T18:24:15;13.30;99.90
11320;DHT22;5715;48.234;14.320;2023-02-18T18:27:02;13.30;99.90
11320;DHT22;5715;48.234;14.320;2023-02-18T18:29:50;13.30;99.90
11320;DHT22;5715;48.234;14.320;2023-02-18T18:32:38;13.30;99.90
11320;DHT22;5715;48.234;14.320;2023-02-18T18:35:34;13.30;99.90
11320;DHT22;5715;48.234;14.320;2023-02-18T18:38:24;13.30;99.90
11320;DHT22;5715;48.234;14.320;2023-02-18T18:41:16;13.30;99.90
11320;DHT22;5715;48.234;14.320;2023-02-18T18:44:06;13.30;99.90
11320;DHT22;5715;48.234;14.320;2023-02-18T18:46:53;13.30;99.90
11320;DHT22;5715;48.234;14.320;2023-02-18T18:49:44;13.30;99.90
11320;DHT22;5715;48.234;14.320;2023-02-18T18:52:31;13.40;99.90
11320;DHT22;5715;48.234;14.320;2023-02-18T18:55:29;13.40;99.90
11320;DHT22;5715;48.234;14.320;2023-02-18T18:58:24;13.40;99.90
11320;DHT22;5715;48.234;14.320;2023-02-18T19:01:16;13.30;99.90
11320;DHT22;5715;48.234;14.320;2023-02-18T19:04:06;13.30;99.90
11320;DHT22;5715;48.234;14.320;2023-02-18T19:06:53;13.30;99.90
11320;DHT22;5715;48.234;14.320;2023-02-18T19:09:41;13.30;99.90
11320;DHT22;5715;48.234;14.320;2023-02-18T19:12:29;13.30;99.90
11320;DHT22;5715;48.234;14.320;2023-02-18T19:15:22;13.20;99.90
11320;DHT22;5715;48.234;14.320;2023-02-18T19:18:13;13.20;99.90
11320;DHT22;5715;48.234;14.320;2023-02-18T19:21:03;13.20;99.90
11320;DHT22;5715;48.234;14.320;2023-02-18T19:23:51;13.20;99.90
11320;DHT22;5715;48.234;14.320;2023-02-18T19:26:39;13.20;99.90
11320;DHT22;5715;48.234;14.320;2023-02-18T19:29:26;13.20;99.90
11320;DHT22;5715;48.234;14.320;2023-02-18T19:32:14;13.10;99.90
11320;DHT22;5715;48.234;14.320;2023-02-18T19:35:02;13.20;99.90
11320;DHT22;5715;48.234;14.320;2023-02-18T19:37:49;13.10;99.90
11320;DHT22;5715;48.234;14.320;2023-02-18T19:40:38;13.10;99.90
11320;DHT22;5715;48.234;14.320;2023-02-18T19:43:27;13.20;99.90
11320;DHT22;5715;48.234;14.320;2023-02-18T19:46:16;13.10;99.90
11320;DHT22;5715;48.234;14.320;2023-02-18T19:49:05;13.10;99.90
11320;DHT22;5715;48.234;14.320;2023-02-18T19:51:52;13.10;99.90
11320;DHT22;5715;48.234;14.320;2023-02-18T19:54:40;13.00;99.90
11320;DHT22;5715;48.234;14.320;2023-02-18T19:57:28;13.00;99.90
11320;DHT22;5715;48.234;14.320;2023-02-18T20:00:17;12.90;99.90
11320;DHT22;5715;48.234;14.320;2023-02-18T20:03:06;12.90;99.90
11320;DHT22;5715;48.234;14.320;2023-02-18T20:05:54;12.90;99.90
11320;DHT22;5715;48.234;14.320;2023-02-18T20:08:42;12.90;99.90
11320;DHT22;5715;48.234;14.320;2023-02-18T20:11:31;12.90;99.90
11320;DHT22;5715;48.234;14.320;2023-02-18T20:14:19;12.90;99.90
11320;DHT22;5715;48.234;14.320;2023-02-18T20:17:09;12.90;99.90
11320;DHT22;5715;48.234;14.320;2023-02-18T20:19:57;12.90;99.90
11320;DHT22;5715;48.234;14.320;2023-02-18T20:22:45;12.80;99.90
11320;DHT22;5715;48.234;14.320;2023-02-18T20:25:32;12.80;99.90
11320;DHT22;5715;48.234;14.320;2023-02-18T20:28:20;12.80;99.90
11320;DHT22;5715;48.234;14.320;2023-02-18T20:31:10;12.90;99.90
11320;DHT22;5715;48.234;14.320;2023-02-18T20:34:00;12.90;99.90